createdAt,value
2018-04-19T04:00:52.355Z,12.93
2018-04-19T04:03:19.152Z,11.80
2018-04-19T04:05:45.923Z,14.00
2018-04-19T04:08:12.736Z,13.23
2018-04-19T04:10:39.484Z,12.10
2018-04-19T04:13:06.243Z,15.97
2018-04-19T04:15:33.053Z,13.67
2018-04-19T04:18:05.604Z,16.00
2018-04-19T04:20:38.324Z,16.63
2018-04-19T04:23:24.791Z,18.63
2018-04-19T04:25:51.601Z,15.47
2018-04-19T04:28:18.380Z,15.73
2018-04-19T04:30:45.160Z,14.87
2018-04-19T04:33:11.929Z,14.83
2018-04-19T04:35:38.691Z,13.23
2018-04-19T04:38:05.496Z,13.53
2018-04-19T04:40:32.251Z,14.40
2018-04-19T04:42:59.031Z,15.07
2018-04-19T04:45:25.770Z,15.10
2018-04-19T04:47:52.560Z,13.23
2018-04-19T04:50:19.344Z,15.43
2018-04-19T04:52:46.143Z,16.87
2018-04-19T04:55:13.100Z,13.83
2018-04-19T04:57:39.907Z,14.70
2018-04-19T05:00:07.607Z,16.23
2018-04-19T05:02:34.448Z,15.00
2018-04-19T05:05:01.201Z,15.27
2018-04-19T05:07:27.997Z,13.73
2018-04-19T05:09:54.742Z,12.23
2018-04-19T05:12:21.849Z,13.27
2018-04-19T05:14:48.664Z,13.63
2018-04-19T05:17:15.495Z,16.23
2018-04-19T05:19:42.750Z,14.40
2018-04-19T05:22:09.816Z,14.63
2018-04-19T05:24:36.577Z,14.87
2018-04-19T05:27:04.174Z,12.87
2018-04-19T05:29:30.917Z,13.93
2018-04-19T05:31:57.693Z,14.40
2018-04-19T05:34:24.480Z,13.00
2018-04-19T05:36:51.249Z,14.03
2018-04-19T05:39:18.056Z,14.40
2018-04-19T05:41:44.825Z,16.00
2018-04-19T05:44:11.608Z,15.07
2018-04-19T05:46:38.349Z,14.50
2018-04-19T05:49:06.000Z,14.23
2018-04-19T05:51:32.813Z,15.20
2018-04-19T05:53:59.784Z,13.83
2018-04-19T05:56:26.543Z,13.90
2018-04-19T05:58:53.338Z,14.60
2018-04-19T06:01:20.110Z,14.40
2018-04-19T06:03:46.944Z,14.00
2018-04-19T06:06:13.705Z,15.33
2018-04-19T06:08:40.468Z,13.60
2018-04-19T06:11:07.240Z,14.80
2018-04-19T06:13:33.992Z,15.03
2018-04-19T06:16:00.857Z,16.67
2018-04-19T06:18:27.634Z,15.10
2018-04-19T06:20:54.435Z,14.10
2018-04-19T06:23:21.197Z,15.53
2018-04-19T06:25:47.999Z,14.97
2018-04-19T06:28:14.810Z,14.17
2018-04-19T06:30:41.550Z,16.13
2018-04-19T06:33:08.345Z,13.63
2018-04-19T06:35:35.203Z,13.60
2018-04-19T06:38:01.973Z,15.80
2018-04-19T06:40:29.700Z,14.60
2018-04-19T06:42:56.478Z,15.20
2018-04-19T06:45:23.242Z,14.83
2018-04-19T06:47:50.041Z,15.50
2018-04-19T06:50:16.827Z,14.40
2018-04-19T06:52:43.621Z,14.33
2018-04-19T06:55:10.388Z,13.60
2018-04-19T06:57:37.289Z,13.77
2018-04-19T07:00:04.136Z,14.03
2018-04-19T07:02:31.060Z,14.87
2018-04-19T07:04:57.864Z,15.23
2018-04-19T07:07:24.629Z,14.30
2018-04-19T07:09:51.389Z,13.60
2018-04-19T07:12:18.159Z,13.03
2018-04-19T07:14:44.975Z,12.17
2018-04-19T07:17:11.758Z,12.33
2018-04-19T07:19:38.522Z,11.43
2018-04-19T07:22:05.270Z,11.77
2018-04-19T07:24:32.072Z,11.10
2018-04-19T07:26:58.849Z,10.83
2018-04-19T07:29:25.636Z,11.27
2018-04-19T07:31:52.385Z,10.73
2018-04-19T07:34:19.184Z,11.43
2018-04-19T07:36:45.961Z,9.70
2018-04-19T07:39:12.704Z,9.20
2018-04-19T07:41:39.499Z,7.90
2018-04-19T07:44:06.236Z,7.70
2018-04-19T07:46:32.981Z,8.70
2018-04-19T07:49:00.171Z,8.60
2018-04-19T07:51:26.998Z,8.67
2018-04-19T07:53:53.806Z,8.20
2018-04-19T07:56:20.576Z,8.40
2018-04-19T07:58:47.353Z,8.00
2018-04-19T08:01:14.095Z,7.93
2018-04-19T08:03:40.868Z,8.37
2018-04-19T08:06:07.681Z,7.57
2018-04-19T08:08:34.443Z,7.90
2018-04-19T08:11:01.181Z,7.03
2018-04-19T08:13:27.940Z,8.87
2018-04-19T08:15:54.757Z,6.70
2018-04-19T08:18:21.562Z,6.47
2018-04-19T08:20:48.332Z,7.10
2018-04-19T08:23:15.101Z,7.03
2018-04-19T08:25:41.894Z,6.83
2018-04-19T08:28:08.664Z,5.37
2018-04-19T08:30:35.433Z,5.80
2018-04-19T08:33:02.200Z,5.63
2018-04-19T08:35:29.028Z,4.87
2018-04-19T08:37:55.762Z,6.77
2018-04-19T08:40:22.519Z,6.67
2018-04-19T08:42:49.312Z,6.53
2018-04-19T08:45:16.104Z,5.80
2018-04-19T08:47:42.875Z,6.90
2018-04-19T08:50:09.681Z,7.33
2018-04-19T08:52:36.426Z,7.60
2018-04-19T08:55:03.233Z,7.40
2018-04-19T08:57:30.004Z,7.07
2018-04-19T08:59:56.797Z,7.27
2018-04-19T09:02:23.561Z,6.47
2018-04-19T09:04:50.313Z,7.30
2018-04-19T09:07:17.125Z,6.77
2018-04-19T09:09:43.901Z,7.40
2018-04-19T09:12:10.712Z,7.50
2018-04-19T09:14:37.466Z,8.07
2018-04-19T09:17:04.216Z,7.70
2018-04-19T09:19:31.073Z,7.13
2018-04-19T09:21:57.912Z,8.67
2018-04-19T09:24:24.735Z,7.87
2018-04-19T09:26:51.495Z,8.43
2018-04-19T09:29:18.283Z,9.37
2018-04-19T09:31:45.089Z,7.83
2018-04-19T09:34:12.312Z,7.77
2018-04-19T09:36:39.079Z,7.57
2018-04-19T09:39:05.917Z,8.40
2018-04-19T09:41:32.716Z,8.70
2018-04-19T09:43:59.589Z,8.60
2018-04-19T09:46:26.509Z,8.93
2018-04-19T09:48:53.451Z,7.93
2018-04-19T09:51:23.123Z,7.20
2018-04-19T09:53:50.038Z,7.70
2018-04-19T09:56:17.103Z,8.00
2018-04-19T09:58:43.995Z,7.73
2018-04-19T10:01:10.747Z,8.67
2018-04-19T10:03:43.200Z,7.87
2018-04-19T10:06:09.978Z,6.83
2018-04-19T10:08:36.830Z,8.27
2018-04-19T10:11:03.665Z,6.87
2018-04-19T10:13:30.436Z,7.90
2018-04-19T10:15:57.463Z,8.70
2018-04-19T10:18:24.264Z,7.67
2018-04-19T10:20:51.078Z,6.70
2018-04-19T10:23:17.854Z,7.80
2018-04-19T10:25:44.598Z,8.03
2018-04-19T10:28:11.448Z,7.00
2018-04-19T10:30:38.233Z,7.57
2018-04-19T10:33:05.029Z,8.13
2018-04-19T10:35:31.974Z,7.50
2018-04-19T10:37:58.832Z,7.23
2018-04-19T10:40:25.580Z,6.50
2018-04-19T10:42:52.392Z,6.70
2018-04-19T10:45:19.219Z,7.17
2018-04-19T10:47:46.059Z,7.93
2018-04-19T10:50:12.809Z,6.97
2018-04-19T10:52:39.582Z,7.50
2018-04-19T10:55:06.342Z,8.70
2018-04-19T10:57:33.129Z,9.00
2018-04-19T10:59:59.945Z,8.07
2018-04-19T11:02:26.728Z,8.67
2018-04-19T11:04:53.526Z,7.93
2018-04-19T11:07:20.363Z,7.60
2018-04-19T11:09:47.167Z,8.93
2018-04-19T11:12:13.981Z,10.27
2018-04-19T11:14:40.760Z,9.87
2018-04-19T11:17:07.520Z,10.37
2018-04-19T11:19:34.340Z,10.70
2018-04-19T11:22:01.173Z,11.13
2018-04-19T11:24:28.008Z,11.33
2018-04-19T11:26:54.777Z,12.00
2018-04-19T11:29:21.626Z,10.97
2018-04-19T11:31:48.416Z,10.27
2018-04-19T11:34:15.215Z,10.07
2018-04-19T11:36:42.088Z,11.33
2018-04-19T11:39:08.882Z,11.73
2018-04-19T11:41:35.701Z,11.17
2018-04-19T11:44:03.407Z,11.03
2018-04-19T11:46:30.252Z,11.23
2018-04-19T11:48:57.089Z,13.00
2018-04-19T11:51:23.859Z,13.53
2018-04-19T11:53:50.668Z,12.23
2018-04-19T11:56:17.470Z,12.03
2018-04-19T11:58:44.293Z,11.57
2018-04-19T12:01:11.052Z,11.67
2018-04-19T12:03:37.912Z,13.67
2018-04-19T12:06:04.682Z,12.50
2018-04-19T12:08:31.485Z,13.83
2018-04-19T12:10:58.332Z,12.00
2018-04-19T12:13:25.232Z,13.50
2018-04-19T12:15:52.016Z,12.40
2018-04-19T12:18:18.762Z,12.50
2018-04-19T12:20:45.536Z,11.60
2018-04-19T12:23:12.345Z,12.23
2018-04-19T12:25:39.154Z,13.20
2018-04-19T12:28:05.907Z,12.20
2018-04-19T12:30:32.661Z,12.77
2018-04-19T12:32:59.438Z,11.60
2018-04-19T12:35:26.265Z,13.37
2018-04-19T12:37:53.082Z,12.23
2018-04-19T12:40:19.901Z,11.17
2018-04-19T12:42:46.662Z,11.67
2018-04-19T12:45:13.419Z,10.37
2018-04-19T12:47:40.249Z,10.33
2018-04-19T12:50:07.280Z,11.97
2018-04-19T12:52:34.042Z,11.53
2018-04-19T12:55:00.798Z,11.17
2018-04-19T12:57:27.571Z,10.73
2018-04-19T12:59:54.365Z,11.27
2018-04-19T13:02:21.154Z,11.17
2018-04-19T13:04:47.951Z,10.53
2018-04-19T13:07:14.732Z,13.47
2018-04-19T13:09:41.559Z,10.90
2018-04-19T13:12:08.373Z,10.20
2018-04-19T13:14:35.149Z,10.80
2018-04-19T13:17:01.911Z,11.40
2018-04-19T13:19:28.735Z,10.27
2018-04-19T13:21:55.535Z,11.63
2018-04-19T13:24:22.341Z,11.17
2018-04-19T13:26:49.204Z,11.17
2018-04-19T13:29:16.017Z,11.10
2018-04-19T13:31:42.796Z,10.27
2018-04-19T13:34:09.601Z,10.60
2018-04-19T13:36:36.371Z,9.50
2018-04-19T13:39:03.169Z,10.50
2018-04-19T13:41:29.965Z,9.67
2018-04-19T13:43:56.764Z,10.77
2018-04-19T13:46:23.546Z,10.10
2018-04-19T13:48:50.345Z,10.13
2018-04-19T13:51:17.143Z,11.07
2018-04-19T13:53:43.965Z,10.33
2018-04-19T13:56:10.773Z,10.33
2018-04-19T13:58:37.527Z,10.40
2018-04-19T14:01:04.365Z,9.70
2018-04-19T14:03:31.144Z,11.40
2018-04-19T14:05:57.999Z,9.60
2018-04-19T14:08:24.773Z,11.43
2018-04-19T14:10:51.532Z,10.40
2018-04-19T14:13:18.344Z,11.10
2018-04-19T14:15:45.141Z,10.40
2018-04-19T14:18:11.909Z,10.83
2018-04-19T14:20:38.687Z,9.47
2018-04-19T14:23:05.453Z,9.63
2018-04-19T14:25:32.766Z,9.80
2018-04-19T14:27:59.589Z,10.30
2018-04-19T14:30:26.393Z,9.60
2018-04-19T14:32:53.200Z,10.07
2018-04-19T14:35:19.949Z,9.97
2018-04-19T14:37:46.710Z,10.40
2018-04-19T14:40:13.584Z,9.00
2018-04-19T14:42:40.389Z,10.50
2018-04-19T14:45:07.157Z,10.03
2018-04-19T14:47:33.934Z,9.83
2018-04-19T14:50:00.673Z,9.63
2018-04-19T14:52:27.500Z,10.00
2018-04-19T14:54:54.257Z,9.17
2018-04-19T14:57:21.037Z,10.47
2018-04-19T14:59:47.901Z,8.97
2018-04-19T15:02:14.714Z,9.00
2018-04-19T15:04:41.557Z,9.90
2018-04-19T15:07:08.397Z,9.40
2018-04-19T15:09:35.244Z,9.37
2018-04-19T15:12:02.029Z,9.90
2018-04-19T15:14:28.833Z,9.77
2018-04-19T15:16:55.626Z,8.60
2018-04-19T15:19:22.416Z,9.33
2018-04-19T15:21:49.184Z,8.37
2018-04-19T15:24:15.953Z,9.87
2018-04-19T15:26:42.714Z,11.43
2018-04-19T15:29:09.509Z,10.10
2018-04-19T15:31:36.283Z,9.23
2018-04-19T15:34:03.073Z,10.93
2018-04-19T15:36:29.965Z,9.93
2018-04-19T15:38:56.767Z,11.77
2018-04-19T15:41:23.565Z,10.43
2018-04-19T15:43:50.405Z,9.33
2018-04-19T15:46:17.158Z,11.90
2018-04-19T15:48:44.000Z,13.20
2018-04-19T15:51:10.783Z,13.57
2018-04-19T15:53:37.597Z,13.40
2018-04-19T15:56:04.451Z,10.60
2018-04-19T15:58:31.243Z,11.73
2018-04-19T16:00:58.040Z,10.80
2018-04-19T16:03:24.828Z,12.23
2018-04-19T16:05:51.646Z,11.43
2018-04-19T16:08:18.641Z,11.37
2018-04-19T16:10:45.401Z,10.00
2018-04-19T16:13:12.208Z,11.10
2018-04-19T16:15:38.980Z,10.80
2018-04-19T16:18:05.796Z,10.40
2018-04-19T16:20:33.317Z,11.17
2018-04-19T16:23:00.097Z,11.83
2018-04-19T16:25:26.873Z,11.10
2018-04-19T16:27:53.647Z,9.70
2018-04-19T16:30:20.486Z,10.37
2018-04-19T16:32:47.263Z,11.43
2018-04-19T16:35:14.034Z,11.50
2018-04-19T16:37:40.819Z,11.87
2018-04-19T16:40:07.674Z,11.27
2018-04-19T16:42:34.534Z,11.50
2018-04-19T16:45:01.298Z,11.03
2018-04-19T16:47:28.083Z,11.90
2018-04-19T16:49:55.162Z,10.60
2018-04-19T16:52:21.933Z,11.07
2018-04-19T16:54:48.768Z,9.97
2018-04-19T16:57:15.538Z,11.60
2018-04-19T16:59:42.297Z,11.70
2018-04-19T17:02:09.123Z,11.17
2018-04-19T17:04:35.940Z,10.80
2018-04-19T17:07:02.756Z,11.50
2018-04-19T17:09:30.056Z,11.73
2018-04-19T17:11:56.845Z,11.33
2018-04-19T17:14:23.651Z,11.10
2018-04-19T17:16:50.419Z,11.17
2018-04-19T17:19:17.227Z,11.47
2018-04-19T17:21:44.067Z,11.30
2018-04-19T17:24:10.894Z,10.20
2018-04-19T17:26:37.674Z,9.17
2018-04-19T17:29:04.453Z,11.00
2018-04-19T17:31:31.276Z,10.47
2018-04-19T17:33:58.080Z,11.43
2018-04-19T17:36:24.837Z,11.40
2018-04-19T17:38:51.614Z,11.07
2018-04-19T17:41:18.377Z,11.20
2018-04-19T17:43:45.193Z,10.77
2018-04-19T17:46:11.963Z,11.50
2018-04-19T17:48:38.725Z,11.30
2018-04-19T17:51:05.536Z,12.07
2018-04-19T17:53:32.291Z,13.70
2018-04-19T17:55:59.116Z,10.80
2018-04-19T17:58:25.899Z,12.97
2018-04-19T18:00:52.698Z,12.20
2018-04-19T18:03:19.475Z,11.40
2018-04-19T18:05:46.239Z,12.03
2018-04-19T18:08:13.076Z,13.10
2018-04-19T18:10:39.860Z,13.20
2018-04-19T18:13:06.684Z,12.33
2018-04-19T18:15:33.483Z,12.70
2018-04-19T18:18:00.316Z,12.90
2018-04-19T18:20:27.146Z,12.47
2018-04-19T18:22:53.976Z,11.20
2018-04-19T18:25:20.753Z,12.57
2018-04-19T18:27:47.542Z,11.70
2018-04-19T18:30:14.318Z,12.83
2018-04-19T18:32:41.148Z,12.10
2018-04-19T18:35:09.004Z,13.70
2018-04-19T18:37:35.856Z,12.00
2018-04-19T18:40:02.660Z,11.97
2018-04-19T18:42:29.469Z,12.40
2018-04-19T18:44:56.334Z,12.50
2018-04-19T18:47:23.121Z,11.50
2018-04-19T18:49:49.929Z,11.50
2018-04-19T18:52:16.704Z,10.70
2018-04-19T18:54:43.502Z,11.30
2018-04-19T18:57:10.317Z,11.23
2018-04-19T18:59:37.093Z,10.90
2018-04-19T19:02:03.898Z,10.63
2018-04-19T19:04:30.746Z,10.80
2018-04-19T19:06:57.590Z,12.40
2018-04-19T19:09:24.414Z,11.33
2018-04-19T19:11:51.188Z,10.83
2018-04-19T19:14:17.983Z,11.57
2018-04-19T19:16:44.813Z,11.87
2018-04-19T19:19:17.534Z,11.57
2018-04-19T19:21:44.371Z,10.97
2018-04-19T19:24:11.146Z,13.23
2018-04-19T19:26:37.959Z,12.67
2018-04-19T19:29:04.739Z,13.07
2018-04-19T19:31:31.523Z,13.50
2018-04-19T19:33:58.353Z,12.93
2018-04-19T19:36:25.134Z,12.23
2018-04-19T19:38:51.907Z,11.90
2018-04-19T19:41:18.715Z,11.83
2018-04-19T19:43:45.490Z,10.63
2018-04-19T19:46:12.331Z,9.53
2018-04-19T19:48:39.129Z,10.30
2018-04-19T19:51:05.906Z,9.80
2018-04-19T19:53:32.699Z,9.63
2018-04-19T19:55:59.546Z,11.47
2018-04-19T19:58:26.404Z,10.10
2018-04-19T20:00:53.205Z,10.40
2018-04-19T20:03:20.160Z,9.63
2018-04-19T20:05:47.094Z,10.40
2018-04-19T20:08:13.815Z,9.80
2018-04-19T20:10:40.635Z,9.50
2018-04-19T20:13:07.455Z,9.90
2018-04-19T20:15:34.266Z,8.87
2018-04-19T20:18:01.415Z,8.27
2018-04-19T20:20:28.184Z,8.80
2018-04-19T20:22:55.009Z,7.03
2018-04-19T20:25:21.794Z,9.10
2018-04-19T20:27:48.579Z,7.50
2018-04-19T20:30:15.361Z,8.47
2018-04-19T20:32:42.144Z,9.00
2018-04-19T20:35:09.020Z,7.97
2018-04-19T20:37:35.785Z,7.47
2018-04-19T20:40:02.565Z,8.70
2018-04-19T20:42:29.354Z,8.40
2018-04-19T20:44:56.151Z,8.70
2018-04-19T20:47:22.965Z,8.73
2018-04-19T20:49:49.713Z,8.37
2018-04-19T20:52:16.502Z,8.47
2018-04-19T20:54:43.246Z,7.63
2018-04-19T20:57:10.016Z,8.43
2018-04-19T20:59:36.902Z,8.47
2018-04-19T21:02:03.722Z,7.37
2018-04-19T21:04:30.507Z,7.37
2018-04-19T21:06:57.278Z,7.93
2018-04-19T21:09:24.060Z,8.60
2018-04-19T21:11:50.843Z,7.77
2018-04-19T21:14:17.627Z,8.53
2018-04-19T21:16:44.459Z,7.90
2018-04-19T21:19:11.228Z,8.13
2018-04-19T21:21:37.977Z,8.13
2018-04-19T21:24:04.768Z,8.43
2018-04-19T21:26:31.548Z,8.57
2018-04-19T21:28:58.302Z,8.20
2018-04-19T21:31:25.049Z,8.30
2018-04-19T21:33:51.869Z,8.50
2018-04-19T21:36:18.719Z,8.50
2018-04-19T21:38:45.449Z,7.80
2018-04-19T21:41:12.213Z,8.70
2018-04-19T21:43:39.012Z,8.07
2018-04-19T21:46:05.761Z,9.00
2018-04-19T21:48:32.994Z,8.30
2018-04-19T21:50:59.768Z,8.80
2018-04-19T21:53:26.594Z,8.03
2018-04-19T21:55:53.323Z,8.37
2018-04-19T21:58:20.091Z,9.40
2018-04-19T22:00:46.931Z,8.87
2018-04-19T22:03:13.774Z,9.93
2018-04-19T22:05:40.627Z,8.43
2018-04-19T22:08:07.378Z,8.63
2018-04-19T22:10:34.195Z,9.63
2018-04-19T22:13:01.000Z,9.13
2018-04-19T22:15:27.749Z,8.60
2018-04-19T22:17:54.528Z,8.70
2018-04-19T22:20:21.289Z,10.70
2018-04-19T22:22:48.067Z,9.80
2018-04-19T22:25:14.899Z,10.27
